Time;durP1;ratioP1;P1;durP2;ratioP2;P2;SDS_P1;SDS_P2;PMS_P1;PMS_P2;Temp;Humidity;BMP_temperature;BMP_pressure;BME280_temperature;BME280_humidity;BME280_pressure;Samples;Min_cycle;Max_cycle;Signal;HPM_P1;HPM_P2
2021/03/01 00:00:31;;;;;;;1.17;1.17;;;4.50;72.10;;;;;;4988041;28;20196;-73
2021/03/01 00:02:57;;;;;;;1.57;1.47;;;4.50;72.20;;;;;;4980987;28;20189;-73
2021/03/01 00:05:23;;;;;;;4.30;1.07;;;4.50;72.10;;;;;;4987602;28;20176;-73
2021/03/01 00:07:49;;;;;;;1.00;1.00;;;4.50;72.10;;;;;;4987521;28;20181;-72
2021/03/01 00:10:16;;;;;;;1.60;1.40;;;4.50;72.00;;;;;;4987726;28;20178;-73
2021/03/01 00:12:43;;;;;;;1.40;1.30;;;4.50;72.20;;;;;;4987760;28;20967;-73
2021/03/01 00:15:11;;;;;;;3.47;1.80;;;4.40;72.30;;;;;;4987571;28;20244;-73
2021/03/01 00:17:38;;;;;;;1.80;1.70;;;4.40;72.00;;;;;;4980942;28;20272;-73
2021/03/01 00:20:06;;;;;;;1.27;1.17;;;4.40;72.30;;;;;;4976881;28;20271;-72
2021/03/01 00:22:32;;;;;;;1.93;1.73;;;4.40;72.30;;;;;;4986823;28;20186;-73
2021/03/01 00:24:57;;;;;;;1.70;1.67;;;4.40;72.30;;;;;;4986970;28;20201;-73
2021/03/01 00:27:23;;;;;;;1.80;1.70;;;4.40;72.20;;;;;;4986204;28;20255;-73
2021/03/01 00:29:49;;;;;;;5.93;1.93;;;4.30;72.20;;;;;;4985970;28;21126;-73
2021/03/01 00:32:14;;;;;;;3.07;1.80;;;4.30;72.10;;;;;;4987175;28;20174;-74
2021/03/01 00:34:40;;;;;;;1.90;1.67;;;4.30;72.10;;;;;;4984970;28;20232;-73
2021/03/01 00:37:06;;;;;;;2.13;1.90;;;4.30;72.10;;;;;;4985741;28;20193;-73
2021/03/01 00:39:32;;;;;;;1.60;1.50;;;4.20;72.10;;;;;;4977674;28;20198;-73
2021/03/01 00:41:57;;;;;;;2.03;1.83;;;4.20;72.00;;;;;;4966115;28;20179;-73
2021/03/01 00:44:23;;;;;;;1.63;1.40;;;4.20;72.00;;;;;;4967174;28;20285;-73
2021/03/01 00:46:49;;;;;;;1.40;1.37;;;4.20;71.90;;;;;;4967271;28;20666;-73
2021/03/01 00:49:14;;;;;;;2.50;1.70;;;4.20;71.90;;;;;;4981244;28;20277;-73
2021/03/01 00:51:40;;;;;;;2.23;1.50;;;4.20;71.90;;;;;;4986417;28;20186;-73
2021/03/01 00:54:06;;;;;;;1.73;1.13;;;4.10;71.80;;;;;;4987070;28;20178;-73
2021/03/01 00:56:32;;;;;;;1.33;1.33;;;4.10;71.80;;;;;;4984442;28;20186;-73
2021/03/01 00:58:58;;;;;;;1.20;1.20;;;4.10;71.80;;;;;;4982407;28;20646;-73
2021/03/01 01:01:23;;;;;;;2.33;1.67;;;4.10;71.70;;;;;;4986760;28;20182;-73
2021/03/01 01:03:49;;;;;;;2.00;1.53;;;4.10;71.50;;;;;;4987225;28;20205;-73
2021/03/01 01:06:15;;;;;;;2.80;1.63;;;4.10;71.50;;;;;;4988469;28;20739;-73
2021/03/01 01:08:40;;;;;;;1.37;1.27;;;4.00;71.20;;;;;;4988765;28;20178;-73
2021/03/01 01:11:06;;;;;;;1.53;1.37;;;4.00;71.40;;;;;;4990842;28;20174;-73
2021/03/01 01:13:32;;;;;;;2.70;1.10;;;4.00;71.10;;;;;;4990850;28;20542;-73
2021/03/01 01:15:59;;;;;;;1.53;1.43;;;4.00;71.10;;;;;;4985230;28;20183;-73
2021/03/01 01:18:25;;;;;;;1.60;1.40;;;4.00;71.00;;;;;;4984410;28;20585;-73
2021/03/01 01:20:52;;;;;;;0.77;0.77;;;4.00;71.00;;;;;;5006786;28;20190;-73
2021/03/01 01:23:17;;;;;;;1.50;1.40;;;4.00;70.80;;;;;;4970592;28;20194;-73
2021/03/01 01:25:43;;;;;;;1.00;1.00;;;3.90;70.80;;;;;;4969353;28;20190;-73
2021/03/01 01:28:09;;;;;;;1.00;1.00;;;4.00;70.70;;;;;;4985672;28;20327;-73
2021/03/01 01:30:35;;;;;;;1.67;1.57;;;3.90;70.70;;;;;;4990148;28;20269;-73
2021/03/01 01:33:01;;;;;;;1.97;1.13;;;3.90;70.60;;;;;;4990693;28;20174;-73
2021/03/01 01:35:27;;;;;;;1.60;1.50;;;3.90;70.60;;;;;;4986602;28;20193;-73
2021/03/01 01:37:52;;;;;;;3.90;1.13;;;4.00;70.50;;;;;;4975896;28;20625;-73
2021/03/01 01:40:20;;;;;;;2.00;1.10;;;3.90;70.60;;;;;;4983048;28;20419;-73
2021/03/01 01:42:47;;;;;;;1.10;1.10;;;3.90;70.60;;;;;;5021789;28;20244;-73
2021/03/01 01:45:19;;;;;;;1.33;1.00;;;3.90;70.60;;;;;;5021907;28;20212;-74
2021/03/01 01:47:46;;;;;;;1.50;1.20;;;3.90;70.60;;;;;;4988289;28;20181;-73
2021/03/01 01:50:12;;;;;;;2.07;1.30;;;3.80;70.90;;;;;;4982163;28;20206;-73
2021/03/01 01:52:39;;;;;;;1.60;1.13;;;3.80;70.90;;;;;;4970190;28;21014;-73
2021/03/01 02:03:34;;;;;;;1.47;1.37;;;3.80;70.80;;;;;;4990520;28;20190;-73
2021/03/01 02:06:20;;;;;;;1.20;1.20;;;3.80;71.00;;;;;;4990590;28;20201;-73
2021/03/01 02:09:13;;;;;;;4.20;1.20;;;3.80;71.00;;;;;;4988078;28;20185;-73
2021/03/01 02:12:10;;;;;;;1.53;1.53;;;3.70;71.30;;;;;;4988883;28;20629;-73
2021/03/01 02:15:01;;;;;;;1.60;1.00;;;3.70;71.50;;;;;;5011999;28;21165;-73
2021/03/01 02:17:27;;;;;;;2.70;1.33;;;3.60;71.70;;;;;;4961906;28;20202;-73
2021/03/01 02:19:53;;;;;;;0.80;0.77;;;3.60;71.70;;;;;;4959282;28;20198;-73
2021/03/01 02:22:18;;;;;;;1.23;1.13;;;3.60;71.90;;;;;;4952527;28;21099;-73
2021/03/01 02:24:48;;;;;;;1.67;1.37;;;3.70;72.10;;;;;;4947634;29;20294;-73
2021/03/01 02:27:20;;;;;;;2.43;1.27;;;3.60;72.20;;;;;;4961478;28;20205;-73
2021/03/01 02:29:47;;;;;;;1.50;1.50;;;3.70;72.30;;;;;;4951146;28;20682;-73
2021/03/01 02:32:15;;;;;;;1.40;1.30;;;3.60;72.70;;;;;;4967325;28;20186;-73
2021/03/01 02:34:42;;;;;;;1.83;1.73;;;3.60;72.60;;;;;;4966757;28;20277;-73
2021/03/01 02:37:11;;;;;;;1.67;1.23;;;3.60;72.70;;;;;;4957510;28;20774;-73
2021/03/01 02:39:43;;;;;;;1.33;1.33;;;3.60;72.50;;;;;;4966762;28;20206;-73
2021/03/01 02:42:11;;;;;;;1.40;1.30;;;3.60;72.40;;;;;;4966445;28;20569;-73
2021/03/01 02:44:39;;;;;;;2.57;1.53;;;3.60;72.40;;;;;;4966245;28;20232;-73
2021/03/01 02:47:05;;;;;;;4.83;1.30;;;3.60;72.50;;;;;;4966686;28;20212;-73
2021/03/01 02:49:33;;;;;;;3.30;1.37;;;3.50;72.60;;;;;;4965914;28;20269;-73
2021/03/01 02:52:00;;;;;;;1.73;1.63;;;3.50;72.80;;;;;;4932728;28;20199;-73
2021/03/01 02:54:27;;;;;;;1.50;1.37;;;3.40;72.90;;;;;;4948396;28;20289;-73
2021/03/01 02:56:54;;;;;;;1.47;1.37;;;3.40;73.10;;;;;;5000974;28;20179;-73
2021/03/01 02:59:23;;;;;;;1.80;1.70;;;3.40;73.40;;;;;;4969828;28;20171;-73
2021/03/01 03:01:50;;;;;;;1.30;1.23;;;3.30;73.70;;;;;;4988197;28;20189;-73
2021/03/01 03:04:16;;;;;;;6.73;2.77;;;3.30;73.80;;;;;;4988345;28;20224;-73
2021/03/01 03:06:43;;;;;;;1.87;1.77;;;3.30;73.60;;;;;;4988686;28;20965;-73
2021/03/01 03:09:10;;;;;;;1.90;1.73;;;3.40;73.60;;;;;;4988470;28;20646;-73
2021/03/01 03:11:42;;;;;;;2.90;1.80;;;3.40;73.50;;;;;;4982708;28;20269;-73
2021/03/01 03:14:20;;;;;;;1.73;1.60;;;3.30;73.80;;;;;;4979809;28;20202;-73
2021/03/01 03:16:50;;;;;;;2.50;2.07;;;3.30;73.80;;;;;;4988321;28;20256;-73
2021/03/01 03:19:16;;;;;;;1.37;1.37;;;3.20;73.90;;;;;;4988284;28;20177;-73
2021/03/01 03:21:42;;;;;;;2.67;1.43;;;3.20;74.20;;;;;;4988367;28;20173;-73
2021/03/01 03:24:08;;;;;;;1.23;1.17;;;3.10;74.30;;;;;;4987715;28;20201;-73
2021/03/01 03:26:35;;;;;;;2.20;1.80;;;3.10;74.50;;;;;;4987828;28;20217;-73
2021/03/01 03:29:01;;;;;;;1.03;1.03;;;3.10;74.50;;;;;;4987599;28;20199;-73
2021/03/01 03:31:27;;;;;;;2.10;2.00;;;3.10;74.20;;;;;;4978785;28;20193;-73
2021/03/01 03:33:53;;;;;;;2.90;1.57;;;3.00;74.40;;;;;;4985049;28;20817;-73
2021/03/01 03:36:23;;;;;;;2.63;1.73;;;3.00;74.40;;;;;;4987945;28;20178;-73
2021/03/01 03:39:11;;;;;;;2.07;1.57;;;3.00;74.80;;;;;;4987159;28;20181;-73
2021/03/01 03:41:37;;;;;;;2.10;2.00;;;2.90;74.90;;;;;;4987112;28;20185;-73
2021/03/01 03:44:06;;;;;;;5.07;1.50;;;3.00;74.80;;;;;;4987097;28;20264;-73
2021/03/01 03:46:33;;;;;;;4.27;1.63;;;2.90;75.10;;;;;;4987941;28;20215;-73
2021/03/01 03:49:00;;;;;;;1.67;1.53;;;2.90;75.20;;;;;;4986174;28;20188;-73
2021/03/01 03:51:28;;;;;;;1.73;1.63;;;2.90;75.20;;;;;;4979708;28;20186;-73
2021/03/01 03:54:00;;;;;;;1.37;1.20;;;2.90;74.90;;;;;;4985196;28;20720;-73
2021/03/01 03:56:28;;;;;;;1.97;1.87;;;2.90;74.70;;;;;;4986454;28;20186;-73
2021/03/01 03:59:08;;;;;;;1.20;1.17;;;2.80;75.10;;;;;;4987291;28;20300;-73
2021/03/01 04:01:35;;;;;;;1.63;1.53;;;2.80;75.10;;;;;;4987624;28;20170;-73
2021/03/01 04:04:07;;;;;;;3.63;1.33;;;2.80;75.40;;;;;;4987247;28;20219;-73
2021/03/01 04:06:38;;;;;;;1.10;1.10;;;2.70;75.30;;;;;;4986051;28;20173;-73
2021/03/01 04:09:08;;;;;;;1.07;1.07;;;2.70;75.40;;;;;;4986886;28;20182;-73
2021/03/01 04:11:35;;;;;;;3.00;1.63;;;2.70;75.50;;;;;;5010701;28;20189;-73
2021/03/01 04:14:02;;;;;;;1.87;1.43;;;2.70;75.50;;;;;;4984689;28;20260;-73
2021/03/01 04:16:30;;;;;;;1.47;1.40;;;2.70;75.60;;;;;;4984633;28;20192;-73
2021/03/01 04:19:01;;;;;;;1.50;1.47;;;2.70;75.60;;;;;;4985049;28;20605;-73
2021/03/01 04:21:28;;;;;;;1.90;1.73;;;2.60;75.90;;;;;;4986571;28;20173;-73
2021/03/01 04:23:55;;;;;;;1.60;1.50;;;2.50;76.10;;;;;;4984708;28;20697;-73
2021/03/01 04:26:21;;;;;;;1.47;1.37;;;2.50;76.20;;;;;;4986840;28;20670;-73
2021/03/01 04:28:48;;;;;;;3.80;1.57;;;2.50;76.20;;;;;;4985833;28;20185;-74
2021/03/01 04:31:15;;;;;;;1.93;1.17;;;2.50;76.00;;;;;;4986938;28;20181;-73
2021/03/01 04:33:43;;;;;;;1.73;1.63;;;2.50;76.20;;;;;;4979776;28;20538;-72
2021/03/01 04:36:09;;;;;;;2.03;1.93;;;2.50;76.70;;;;;;4968216;28;20713;-73
2021/03/01 04:38:36;;;;;;;1.23;1.23;;;2.50;76.50;;;;;;4986738;28;20248;-73
2021/03/01 04:41:02;;;;;;;4.87;1.80;;;2.50;76.40;;;;;;4990743;28;20182;-73
2021/03/01 04:43:29;;;;;;;1.87;1.77;;;2.60;76.70;;;;;;4989072;28;20284;-76
2021/03/01 04:45:56;;;;;;;1.60;1.50;;;2.60;76.50;;;;;;4989027;28;20250;-76
2021/03/01 04:48:24;;;;;;;3.67;2.10;;;2.60;76.70;;;;;;4986604;28;20693;-76
2021/03/01 04:50:52;;;;;;;1.97;1.80;;;2.60;76.90;;;;;;4990785;28;21049;-76
2021/03/01 04:53:18;;;;;;;2.30;1.90;;;2.70;76.90;;;;;;4977502;28;20661;-76
2021/03/01 04:55:45;;;;;;;2.10;1.93;;;2.70;77.20;;;;;;4991012;28;20296;-76
2021/03/01 04:58:12;;;;;;;3.17;2.70;;;2.70;77.00;;;;;;4991620;28;20182;-76
2021/03/01 05:00:38;;;;;;;5.40;2.47;;;2.70;77.00;;;;;;4989904;28;20181;-77
2021/03/01 05:03:06;;;;;;;3.03;2.13;;;2.70;77.10;;;;;;4991749;28;20264;-77
2021/03/01 05:05:33;;;;;;;1.83;1.83;;;2.70;77.20;;;;;;4990722;28;20201;-77
2021/03/01 05:08:03;;;;;;;2.53;2.17;;;2.70;77.10;;;;;;4991242;28;20204;-76
2021/03/01 05:10:31;;;;;;;2.60;2.20;;;2.70;77.20;;;;;;4990629;28;20181;-76
2021/03/01 05:12:56;;;;;;;7.50;2.17;;;2.70;77.20;;;;;;4991802;28;20848;-76
2021/03/01 05:15:22;;;;;;;5.33;2.40;;;2.70;77.30;;;;;;4991708;28;20182;-76
2021/03/01 05:17:48;;;;;;;6.60;2.17;;;2.70;77.30;;;;;;5010292;28;20193;-76
2021/03/01 05:20:14;;;;;;;2.20;2.10;;;2.80;77.30;;;;;;4986572;28;20186;-76
2021/03/01 05:22:40;;;;;;;2.17;2.07;;;2.70;77.20;;;;;;4990274;28;20193;-76
2021/03/01 05:25:07;;;;;;;3.83;2.90;;;2.70;77.20;;;;;;4989798;28;20201;-76
2021/03/01 05:27:34;;;;;;;3.97;2.30;;;2.70;77.20;;;;;;4990381;28;20735;-76
2021/03/01 05:30:04;;;;;;;3.13;2.37;;;2.70;77.10;;;;;;4991877;28;20192;-77
2021/03/01 05:32:30;;;;;;;3.03;2.80;;;2.80;77.00;;;;;;4991612;28;20216;-76
2021/03/01 05:34:56;;;;;;;4.53;1.97;;;2.80;77.00;;;;;;4991936;28;20186;-74
2021/03/01 05:37:22;;;;;;;2.83;2.70;;;2.80;76.90;;;;;;5020760;28;20177;-75
2021/03/01 05:39:47;;;;;;;6.47;3.63;;;2.80;77.00;;;;;;5018052;28;20201;-76
2021/03/01 05:42:18;;;;;;;2.87;2.63;;;2.80;77.10;;;;;;4988803;28;20255;-77
2021/03/01 05:44:44;;;;;;;2.73;2.63;;;2.80;77.10;;;;;;4992470;28;20580;-76
2021/03/01 05:47:11;;;;;;;5.00;3.40;;;2.80;77.30;;;;;;4988847;28;20197;-73
2021/03/01 05:49:41;;;;;;;5.27;3.03;;;2.90;77.50;;;;;;4990146;28;20188;-74
2021/03/01 05:52:09;;;;;;;3.57;3.00;;;2.90;77.70;;;;;;4988133;28;21010;-73
2021/03/01 05:54:36;;;;;;;3.03;2.83;;;2.90;77.80;;;;;;4988610;28;20214;-76
2021/03/01 05:57:06;;;;;;;3.50;3.20;;;3.00;77.60;;;;;;4983762;28;20210;-75
2021/03/01 05:59:33;;;;;;;2.80;2.60;;;3.00;77.70;;;;;;4985941;28;20178;-78
2021/03/01 06:01:59;;;;;;;3.43;2.73;;;3.00;77.70;;;;;;4989240;28;20197;-78
2021/03/01 06:04:28;;;;;;;2.37;2.20;;;3.10;77.80;;;;;;5023202;28;20208;-79
2021/03/01 06:06:54;;;;;;;3.33;2.47;;;3.10;77.60;;;;;;4989830;28;20205;-79
2021/03/01 06:09:20;;;;;;;2.87;2.63;;;3.20;77.70;;;;;;5021800;28;20184;-78
2021/03/01 06:11:47;;;;;;;2.73;2.53;;;3.30;77.60;;;;;;4989433;28;20169;-76
2021/03/01 06:14:13;;;;;;;2.87;2.53;;;3.30;77.60;;;;;;4989952;28;20634;-77
2021/03/01 06:17:09;;;;;;;6.27;3.33;;;3.40;77.60;;;;;;4990656;28;20212;-79
2021/03/01 06:19:55;;;;;;;4.23;3.80;;;3.40;77.30;;;;;;5005156;28;20213;-79
2021/03/01 06:22:23;;;;;;;3.83;3.43;;;3.50;77.30;;;;;;4981752;28;20186;-76
2021/03/01 06:25:08;;;;;;;7.27;3.67;;;3.50;77.10;;;;;;4989238;28;20214;-79
2021/03/01 06:27:58;;;;;;;3.40;3.20;;;3.60;77.00;;;;;;4988660;28;20189;-80
2021/03/01 06:30:32;;;;;;;4.63;3.27;;;3.60;76.90;;;;;;4983747;28;20285;-77
2021/03/01 06:33:18;;;;;;;5.80;3.23;;;3.70;76.90;;;;;;4976864;28;20243;-77
2021/03/01 06:35:57;;;;;;;7.47;3.47;;;3.80;76.90;;;;;;4987717;28;20165;-92
2021/03/01 06:38:26;;;;;;;6.17;3.23;;;3.80;76.80;;;;;;5008922;28;20185;-90
2021/03/01 06:41:25;;;;;;;4.07;3.20;;;3.80;76.60;;;;;;4989112;28;20205;-81
2021/03/01 06:43:59;;;;;;;2.47;2.37;;;3.90;76.70;;;;;;5023612;28;20305;-82
2021/03/01 06:46:27;;;;;;;2.73;2.63;;;3.90;76.40;;;;;;5008688;28;20254;-80
2021/03/01 06:48:53;;;;;;;3.20;2.90;;;3.90;76.40;;;;;;5020406;28;20195;-81
2021/03/01 06:51:19;;;;;;;6.07;2.93;;;4.00;76.30;;;;;;5026978;28;20852;-82
2021/03/01 06:53:45;;;;;;;5.60;2.93;;;4.00;76.20;;;;;;5010027;28;20210;-82
2021/03/01 06:56:14;;;;;;;3.50;3.20;;;4.10;76.10;;;;;;5027229;28;20267;-82
2021/03/01 06:58:44;;;;;;;5.80;3.00;;;4.20;76.00;;;;;;5026497;28;20193;-82
2021/03/01 07:01:24;;;;;;;2.97;2.63;;;4.20;76.10;;;;;;4995357;28;20195;-82
2021/03/01 07:03:51;;;;;;;4.90;3.47;;;4.30;75.70;;;;;;5006829;28;20201;-82
2021/03/01 07:06:18;;;;;;;3.10;2.90;;;4.40;75.80;;;;;;5007314;28;20196;-82
2021/03/01 07:08:54;;;;;;;4.77;3.63;;;4.50;75.40;;;;;;5006927;28;20292;-82
2021/03/01 07:11:34;;;;;;;4.20;2.93;;;4.60;75.30;;;;;;5007150;28;20581;-82
2021/03/01 07:14:06;;;;;;;5.27;2.93;;;4.60;75.10;;;;;;5006742;28;20686;-82
2021/03/01 07:16:49;;;;;;;3.90;3.53;;;4.70;75.20;;;;;;5006921;28;20268;-82
2021/03/01 07:19:16;;;;;;;4.23;3.83;;;4.80;74.90;;;;;;4991682;28;20198;-82
2021/03/01 07:21:45;;;;;;;3.50;3.20;;;4.80;74.90;;;;;;4970832;28;20186;-83
2021/03/01 07:24:11;;;;;;;5.70;4.03;;;4.80;74.80;;;;;;4969384;28;20643;-81
2021/03/01 07:26:38;;;;;;;6.60;4.40;;;4.80;75.10;;;;;;4970661;28;20186;-80
2021/03/01 07:29:05;;;;;;;6.77;3.87;;;4.90;75.20;;;;;;4969170;28;20212;-82
2021/03/01 07:31:34;;;;;;;3.53;3.33;;;5.00;75.00;;;;;;4970397;28;20603;-82
2021/03/01 07:34:07;;;;;;;7.27;3.13;;;5.10;75.20;;;;;;5001675;28;20632;-81
2021/03/01 07:36:34;;;;;;;3.87;3.23;;;5.20;74.70;;;;;;4973611;28;20197;-81
2021/03/01 07:39:02;;;;;;;4.03;3.13;;;5.40;74.80;;;;;;4989698;28;20185;-81
2021/03/01 07:41:28;;;;;;;6.20;4.10;;;5.50;74.50;;;;;;4987322;28;20280;-82
2021/03/01 07:43:55;;;;;;;8.57;4.37;;;5.70;74.20;;;;;;4986706;28;20213;-82
2021/03/01 07:46:29;;;;;;;6.67;4.73;;;5.90;73.40;;;;;;4989405;28;20185;-82
2021/03/01 07:48:55;;;;;;;5.97;4.23;;;6.20;72.90;;;;;;4988021;28;20631;-82
2021/03/01 07:51:40;;;;;;;5.00;3.57;;;6.50;72.10;;;;;;4989777;28;20174;-82
2021/03/01 07:54:06;;;;;;;5.67;3.90;;;6.90;70.90;;;;;;4988103;28;20307;-82
2021/03/01 07:56:41;;;;;;;5.83;4.20;;;7.40;70.50;;;;;;4989402;28;20185;-82
2021/03/01 07:59:08;;;;;;;6.03;4.67;;;7.90;69.20;;;;;;4987606;28;20684;-81
2021/03/01 08:01:35;;;;;;;7.20;4.50;;;8.40;67.90;;;;;;4988999;28;20264;-81
2021/03/01 08:04:01;;;;;;;5.13;4.47;;;8.50;67.10;;;;;;4989243;28;20276;-82
2021/03/01 08:06:56;;;;;;;4.90;4.03;;;8.70;66.60;;;;;;4989320;28;20248;-81
2021/03/01 08:09:44;;;;;;;5.37;4.87;;;9.00;65.90;;;;;;4989334;28;20177;-82
2021/03/01 08:12:33;;;;;;;4.67;4.03;;;9.30;65.80;;;;;;5019890;28;20186;-82
2021/03/01 08:15:03;;;;;;;6.87;4.93;;;9.70;64.80;;;;;;4969294;28;20163;-82
2021/03/01 08:17:29;;;;;;;6.27;4.60;;;10.00;63.80;;;;;;4968511;28;20208;-82
2021/03/01 08:20:16;;;;;;;5.13;4.23;;;10.40;63.50;;;;;;4969821;28;20192;-82
2021/03/01 08:25:54;;;;;;;4.33;3.90;;;11.20;61.40;;;;;;4969498;28;20183;-82
2021/03/01 08:28:23;;;;;;;6.20;5.03;;;11.30;60.80;;;;;;5001083;28;20229;-82
2021/03/01 08:30:51;;;;;;;4.93;4.53;;;11.30;60.60;;;;;;5000623;28;20671;-81
2021/03/01 08:33:16;;;;;;;4.60;4.20;;;11.30;60.60;;;;;;5000506;28;20186;-82
2021/03/01 08:35:46;;;;;;;5.43;5.03;;;11.40;60.60;;;;;;4969734;28;20702;-81
2021/03/01 08:38:13;;;;;;;5.50;4.93;;;11.70;60.30;;;;;;4968221;28;20174;-81
2021/03/01 08:40:56;;;;;;;5.23;4.77;;;12.20;59.80;;;;;;4968097;28;20209;-81
2021/03/01 08:43:36;;;;;;;5.28;4.70;;;12.60;58.80;;;;;;5000830;28;20210;-81
2021/03/01 08:46:03;;;;;;;6.32;4.97;;;13.00;58.30;;;;;;4969581;28;20158;-81
2021/03/01 08:48:29;;;;;;;5.05;4.57;;;13.20;57.30;;;;;;4969888;28;20185;-82
2021/03/01 08:50:55;;;;;;;5.10;4.68;;;13.30;56.80;;;;;;4968228;28;20190;-81
2021/03/01 08:53:29;;;;;;;5.63;4.97;;;13.50;56.80;;;;;;5000865;28;20237;-81
2021/03/01 08:55:56;;;;;;;5.32;4.82;;;13.60;56.20;;;;;;4969787;28;20159;-81
2021/03/01 08:58:23;;;;;;;5.05;4.65;;;13.60;55.50;;;;;;4979259;28;20178;-80
2021/03/01 09:01:00;;;;;;;5.30;4.90;;;13.70;55.80;;;;;;4987918;28;20218;-79
2021/03/01 09:03:33;;;;;;;4.22;3.92;;;14.00;55.20;;;;;;4987635;28;20964;-78
2021/03/01 09:06:07;;;;;;;4.53;3.97;;;14.30;53.80;;;;;;4987210;28;20883;-77
2021/03/01 09:08:44;;;;;;;6.95;4.03;;;14.90;54.40;;;;;;4986801;28;20177;-78
2021/03/01 09:11:31;;;;;;;10.93;6.05;;;15.30;52.00;;;;;;4986745;28;20181;-77
2021/03/01 09:14:02;;;;;;;3.20;2.95;;;15.40;53.50;;;;;;4984145;28;20169;-74
2021/03/01 09:16:30;;;;;;;3.65;2.97;;;15.40;52.20;;;;;;4985362;28;20200;-75
2021/03/01 09:19:01;;;;;;;3.72;2.83;;;15.40;52.30;;;;;;5003524;28;20268;-74
2021/03/01 09:21:28;;;;;;;5.10;2.85;;;15.40;51.60;;;;;;4991580;28;20252;-74
2021/03/01 09:23:58;;;;;;;4.22;3.90;;;15.50;51.80;;;;;;4985570;28;20210;-74
2021/03/01 09:26:32;;;;;;;3.15;2.80;;;15.80;51.90;;;;;;4987484;28;20189;-73
2021/03/01 09:29:03;;;;;;;2.80;2.60;;;15.60;50.20;;;;;;4989573;28;20995;-74
2021/03/01 09:31:30;;;;;;;2.92;2.67;;;15.00;51.10;;;;;;4991062;28;20240;-74
2021/03/01 09:33:56;;;;;;;3.17;2.97;;;14.50;51.20;;;;;;4988944;28;20220;-73
2021/03/01 09:36:48;;;;;;;3.08;2.90;;;14.10;51.90;;;;;;4987050;28;20213;-75
2021/03/01 09:39:18;;;;;;;4.18;2.95;;;13.70;53.00;;;;;;5004232;28;20182;-75
2021/03/01 09:41:45;;;;;;;2.53;2.33;;;14.10;53.50;;;;;;4987322;28;20198;-76
2021/03/01 09:44:12;;;;;;;5.68;2.80;;;14.60;51.90;;;;;;4987122;28;20250;-74
2021/03/01 09:46:38;;;;;;;3.63;3.30;;;14.80;51.20;;;;;;4984925;28;20178;-74
2021/03/01 09:49:06;;;;;;;3.15;2.92;;;14.50;51.40;;;;;;4987552;28;20732;-74
2021/03/01 09:51:34;;;;;;;2.50;2.35;;;14.00;51.50;;;;;;5003333;28;20245;-74
2021/03/01 09:54:07;;;;;;;3.40;3.08;;;13.50;52.20;;;;;;4983635;28;20182;-74
2021/03/01 09:56:47;;;;;;;3.15;2.85;;;13.10;52.90;;;;;;4988247;28;20182;-74
2021/03/01 09:59:34;;;;;;;2.17;2.08;;;13.00;53.60;;;;;;4987715;28;20690;-74
2021/03/01 10:02:17;;;;;;;2.00;1.88;;;13.30;53.80;;;;;;4995251;28;20183;-74
2021/03/01 10:04:44;;;;;;;2.40;2.30;;;14.10;53.00;;;;;;4988424;28;20281;-73
2021/03/01 10:07:22;;;;;;;3.17;2.95;;;15.20;51.20;;;;;;4988913;28;20189;-73
2021/03/01 10:09:48;;;;;;;3.83;3.53;;;16.10;49.40;;;;;;4976585;28;20197;-73
2021/03/01 10:12:14;;;;;;;3.40;3.10;;;16.50;48.20;;;;;;4988206;28;20689;-74
2021/03/01 10:14:41;;;;;;;3.35;2.92;;;16.30;48.30;;;;;;4987601;28;20221;-73
2021/03/01 10:17:20;;;;;;;2.67;2.55;;;16.20;48.50;;;;;;4987220;28;20255;-74
2021/03/01 10:19:46;;;;;;;3.58;3.28;;;16.60;48.80;;;;;;4987705;28;20170;-75
2021/03/01 10:22:12;;;;;;;3.47;2.92;;;17.20;48.60;;;;;;4987856;28;20182;-74
2021/03/01 10:24:50;;;;;;;4.95;3.53;;;17.60;48.10;;;;;;4987479;28;20198;-73
2021/03/01 10:27:18;;;;;;;4.72;3.40;;;17.60;46.80;;;;;;4988259;28;20209;-74
2021/03/01 10:29:47;;;;;;;4.22;3.05;;;17.40;46.80;;;;;;4986941;28;20189;-74
2021/03/01 10:32:24;;;;;;;3.25;3.08;;;17.00;47.30;;;;;;5006555;28;20189;-74
2021/03/01 10:34:51;;;;;;;3.28;3.08;;;17.10;47.50;;;;;;4991195;28;20236;-74
2021/03/01 10:37:20;;;;;;;3.03;2.80;;;17.60;48.10;;;;;;4985106;28;20185;-74
2021/03/01 10:39:47;;;;;;;3.38;3.17;;;17.80;46.60;;;;;;4997289;28;20738;-74
2021/03/01 10:42:24;;;;;;;5.47;3.38;;;17.30;47.00;;;;;;4986018;28;20660;-75
2021/03/01 10:45:00;;;;;;;3.40;2.88;;;17.20;47.40;;;;;;4987883;28;20240;-75
2021/03/01 10:47:33;;;;;;;3.00;2.80;;;17.00;47.70;;;;;;4987432;28;20533;-73
2021/03/01 10:50:04;;;;;;;4.18;3.88;;;16.80;48.30;;;;;;4986121;28;20639;-74
2021/03/01 10:52:30;;;;;;;3.33;3.03;;;16.80;48.50;;;;;;4986480;28;20232;-74
2021/03/01 10:54:57;;;;;;;3.55;3.15;;;16.70;49.00;;;;;;4986621;28;20212;-74
2021/03/01 10:57:24;;;;;;;4.78;3.65;;;16.90;49.30;;;;;;4986447;28;20197;-75
2021/03/01 10:59:52;;;;;;;4.40;4.03;;;17.40;48.30;;;;;;4984744;28;20186;-74
2021/03/01 11:02:18;;;;;;;4.22;3.17;;;18.00;47.20;;;;;;4985289;28;20614;-74
2021/03/01 11:04:44;;;;;;;10.35;3.08;;;18.00;47.00;;;;;;4986826;28;20713;-74
2021/03/01 11:07:10;;;;;;;3.50;3.30;;;18.20;47.10;;;;;;4986887;28;20181;-73
2021/03/01 11:09:36;;;;;;;3.38;3.17;;;18.30;46.90;;;;;;4987508;28;20566;-74
2021/03/01 11:12:04;;;;;;;4.47;4.05;;;18.20;46.30;;;;;;4986846;28;20185;-72
2021/03/01 11:14:30;;;;;;;4.15;3.83;;;17.30;47.20;;;;;;4987238;28;20189;-73
2021/03/01 11:16:56;;;;;;;3.85;3.63;;;16.60;48.00;;;;;;4986798;28;20660;-74
2021/03/01 11:19:22;;;;;;;3.15;2.95;;;16.20;49.00;;;;;;4986881;28;20185;-74
2021/03/01 11:21:49;;;;;;;3.83;3.47;;;15.80;49.10;;;;;;4986692;28;20335;-74
2021/03/01 11:24:15;;;;;;;4.18;3.65;;;15.40;49.50;;;;;;4969398;28;20236;-74
2021/03/01 11:26:41;;;;;;;4.97;4.03;;;15.00;50.00;;;;;;4987054;28;20206;-74
2021/03/01 11:29:07;;;;;;;4.03;3.65;;;14.50;51.00;;;;;;4986584;28;20659;-74
2021/03/01 11:31:34;;;;;;;3.38;3.17;;;14.20;51.70;;;;;;4992403;28;20208;-73
2021/03/01 11:34:01;;;;;;;4.57;3.35;;;14.10;52.00;;;;;;4984482;28;20186;-73
2021/03/01 11:36:28;;;;;;;4.88;4.43;;;13.70;52.40;;;;;;4984398;28;20196;-73
2021/03/01 11:38:53;;;;;;;3.28;3.08;;;13.50;52.80;;;;;;4986291;28;20367;-73
2021/03/01 11:41:19;;;;;;;3.60;3.38;;;13.50;53.20;;;;;;4986088;28;20201;-73
2021/03/01 11:43:45;;;;;;;3.45;3.22;;;13.40;53.00;;;;;;4986724;28;20205;-74
2021/03/01 11:46:11;;;;;;;3.47;3.28;;;13.30;53.20;;;;;;4986491;28;20193;-73
2021/03/01 11:48:38;;;;;;;3.95;3.58;;;13.30;53.40;;;;;;4986522;28;20186;-74
2021/03/01 11:51:04;;;;;;;4.72;3.08;;;13.30;53.30;;;;;;4990992;28;21043;-73
2021/03/01 11:53:30;;;;;;;3.13;2.88;;;13.30;53.40;;;;;;4985327;28;20263;-72
2021/03/01 11:55:55;;;;;;;3.70;3.40;;;13.40;53.40;;;;;;4987065;28;20221;-73
2021/03/01 11:58:21;;;;;;;2.97;2.85;;;13.30;53.30;;;;;;5005352;28;20628;-73
2021/03/01 12:00:47;;;;;;;2.60;2.45;;;13.20;53.10;;;;;;4985902;28;20190;-73
2021/03/01 12:03:13;;;;;;;2.37;2.17;;;13.00;52.80;;;;;;4986105;28;20206;-73
2021/03/01 12:05:40;;;;;;;2.30;2.00;;;12.80;52.90;;;;;;4986226;28;20174;-73
2021/03/01 12:08:07;;;;;;;2.50;2.40;;;12.60;53.10;;;;;;4985524;28;20186;-73
2021/03/01 12:10:34;;;;;;;3.10;2.70;;;12.50;53.50;;;;;;4985797;28;20538;-74
2021/03/01 12:13:00;;;;;;;3.17;2.88;;;12.40;53.80;;;;;;4984410;28;20204;-74
2021/03/01 12:15:27;;;;;;;2.88;2.78;;;12.30;54.10;;;;;;4986202;28;20710;-74
2021/03/01 12:17:53;;;;;;;2.78;2.58;;;12.10;54.20;;;;;;4984721;28;20293;-74
2021/03/01 12:20:18;;;;;;;3.08;2.88;;;12.10;54.50;;;;;;4985954;28;20265;-74
2021/03/01 12:22:44;;;;;;;2.72;2.53;;;12.00;54.80;;;;;;4992410;28;21106;-74
2021/03/01 12:25:10;;;;;;;2.70;2.50;;;11.90;55.00;;;;;;5006129;28;20619;-73
2021/03/01 12:27:36;;;;;;;2.85;2.63;;;11.80;55.30;;;;;;4992990;28;20670;-76
2021/03/01 12:30:05;;;;;;;4.05;2.17;;;11.60;55.80;;;;;;4984978;28;20188;-74
2021/03/01 12:32:30;;;;;;;2.80;2.60;;;11.40;56.40;;;;;;4965446;28;20582;-74
2021/03/01 12:34:58;;;;;;;3.10;2.90;;;11.20;57.20;;;;;;4971719;28;20181;-73
2021/03/01 12:37:25;;;;;;;2.80;2.60;;;11.10;57.40;;;;;;4986555;28;20200;-72
2021/03/01 12:39:50;;;;;;;3.38;2.50;;;11.00;58.00;;;;;;4985241;28;20185;-74
2021/03/01 12:42:16;;;;;;;2.70;2.50;;;10.90;58.00;;;;;;4985944;28;20669;-73
2021/03/01 12:44:42;;;;;;;3.58;3.08;;;10.80;58.30;;;;;;4984929;28;20202;-73
2021/03/01 12:47:07;;;;;;;3.08;2.75;;;10.70;58.80;;;;;;4985617;28;20576;-75
2021/03/01 12:49:33;;;;;;;3.25;3.05;;;10.60;59.30;;;;;;4985750;28;20185;-73
2021/03/01 12:51:59;;;;;;;3.70;2.60;;;10.50;59.70;;;;;;4985753;28;20273;-73
2021/03/01 12:54:25;;;;;;;3.30;2.63;;;10.40;59.80;;;;;;4985681;28;20722;-73
2021/03/01 12:56:51;;;;;;;3.10;2.90;;;10.40;60.30;;;;;;4985486;28;20189;-74
2021/03/01 12:59:17;;;;;;;2.93;2.80;;;10.30;59.90;;;;;;4985731;28;20178;-74
2021/03/01 13:01:42;;;;;;;2.70;2.50;;;10.30;60.70;;;;;;4989713;28;20268;-74
2021/03/01 13:04:08;;;;;;;3.43;3.03;;;10.30;60.80;;;;;;4989621;28;20580;-74
2021/03/01 13:06:34;;;;;;;3.27;2.97;;;10.30;60.40;;;;;;4989328;28;20232;-74
2021/03/01 13:09:00;;;;;;;2.53;2.40;;;10.20;60.10;;;;;;4989538;28;20552;-73
2021/03/01 13:11:25;;;;;;;3.27;3.10;;;10.20;60.00;;;;;;4989294;28;20606;-74
2021/03/01 13:13:51;;;;;;;3.37;3.17;;;10.20;60.30;;;;;;4989152;28;20186;-74